Huvudsida
METAR-TAF:

METAR-TAF

Flygplatser :

Adak Island, Alaska, USA

latitud: 51-52-40N, longitud: 176-38-45W, höjd: 6 m

Aktuellt väderrapport

Denna rapport gjordes för 19 minuter sedan, klockan 19:14 UTC
Vind 9 kt från ost/nordost
Temperatur 6°C
Fuktighet 100%
Tryck 1004 hPa
Sikt: 12.9 km
Brutna moln på en höjd av 900 ft
Mulet på en höjd av 1300 ft

METAR: PADK 141914Z AUTO 07009KT 8SM BKN009 OVC013 06/06 A2966 RMK AO2 CIG 004V012 $

Tid: 11:33 (19:33 UTC)


TAF: saknas

Aktuella väderrapporter och prognoser från 4000 flygplatser (METAR- och TAF-rapporter).

De tillgängliga stationerna syns som gula och röda prickar på kartan.

För musen över prickarna för att se namnen på stationerna.

Klicka sedan för att få väderrapporter och prognoser.

För att ändra kartan: Klicka på de gröna knapparna med ett svart kors på för att zooma in; den gröna knappen med ett streck på för att zooma ut; eller på de gröna pilarna för angränsande kartor.


METAR-TAF: